Time;durP1;ratioP1;P1;durP2;ratioP2;P2;SDS_P1;SDS_P2;PMS_P1;PMS_P2;Temp;Humidity;BMP_temperature;BMP_pressure;BME280_temperature;BME280_humidity;BME280_pressure;Samples;Min_cycle;Max_cycle;Signal;HPM_P1;HPM_P2
2022/01/03 00:34:53;;;;;;;;;;;;;;;;;;;;;
2022/01/03 00:42:26;;;;;;;21.98;2.55;;;8.80;99.90;;;;;;5981296;23;20055;-84
2022/01/03 00:53:21;;;;;;;17.38;2.80;;;8.50;99.90;;;;;;5840043;24;20057;-82
2022/01/03 00:56:47;;;;;;;;;;;;;;;;;;;;;
2022/01/03 02:34:15;;;;;;;48.15;3.85;;;9.10;99.90;;;;;;6000290;22;5554979;-81
2022/01/03 02:37:06;;;;;;;26.20;3.60;;;9.10;99.90;;;;;;6142100;23;20024;-83
2022/01/03 02:39:46;;;;;;;38.25;4.13;;;8.70;99.90;;;;;;6077538;23;20014;-82
2022/01/03 02:42:26;;;;;;;27.05;3.75;;;9.30;99.90;;;;;;6099190;23;20481;-83
2022/01/03 02:45:42;;;;;;;29.27;3.40;;;9.20;99.90;;;;;;6051023;23;20025;-84
2022/01/03 02:48:36;;;;;;;28.85;4.32;;;9.00;99.90;;;;;;5994745;23;20027;-83
2022/01/03 02:55:09;;;;;;;32.35;4.15;;;9.40;99.90;;;;;;6041744;23;20450;-82
2022/01/03 02:58:34;;;;;;;;;;;;;;;;;;;;;
2022/01/03 03:02:05;;;;;;;;;;;;;;;;;;;;;
2022/01/03 03:05:50;;;;;;;32.97;4.22;;;8.40;99.90;;;;;;5951959;23;20020;-82
2022/01/03 03:12:05;;;;;;;35.67;5.40;;;9.10;99.90;;;;;;5816877;24;20026;-81
2022/01/03 03:15:06;;;;;;;35.42;4.53;;;8.60;99.90;;;;;;5800193;24;20099;-83
2022/01/03 03:17:39;;;;;;;33.15;3.63;;;8.00;99.90;;;;;;5798050;24;20089;-79
2022/01/03 03:20:11;;;;;;;30.35;4.13;;;9.50;99.90;;;;;;5821401;24;20019;-81
2022/01/03 03:22:47;;;;;;;26.75;4.03;;;8.70;99.90;;;;;;5799686;24;20022;-83
2022/01/03 03:25:34;;;;;;;33.35;4.15;;;8.70;99.90;;;;;;5863926;24;20026;-81
2022/01/03 03:28:18;;;;;;;32.10;3.72;;;8.70;99.90;;;;;;5878079;24;20037;-81
2022/01/03 03:30:54;;;;;;;40.08;4.47;;;9.20;99.90;;;;;;5878109;24;20030;-82
2022/01/03 03:33:32;;;;;;;30.85;4.13;;;8.60;99.90;;;;;;5873093;24;20026;-81
2022/01/03 03:36:13;;;;;;;27.42;3.97;;;8.70;99.90;;;;;;5849288;24;20037;-82
2022/01/03 03:38:55;;;;;;;44.40;4.80;;;8.60;99.90;;;;;;5974056;23;20055;-83
2022/01/03 03:41:47;;;;;;;34.08;4.32;;;8.50;99.90;;;;;;6004071;23;20499;-81
2022/01/03 03:45:03;;;;;;;40.65;4.80;;;9.10;99.90;;;;;;6009597;23;20011;-83
2022/01/03 03:47:43;;;;;;;32.15;3.85;;;8.50;99.90;;;;;;5927107;23;20090;-82
2022/01/03 03:50:24;;;;;;;34.72;5.07;;;8.60;99.90;;;;;;5987848;23;20075;-83
2022/01/03 03:53:20;;;;;;;29.73;3.88;;;8.50;99.90;;;;;;6012697;23;20090;-84
2022/01/03 03:56:02;;;;;;;26.83;3.90;;;8.00;99.90;;;;;;6011488;23;20377;-82
2022/01/03 03:58:48;;;;;;;34.35;4.20;;;8.00;99.90;;;;;;6012141;23;20083;-84
2022/01/03 04:01:33;;;;;;;;;;;;;;;;;;;;;
2022/01/03 04:04:04;;;;;;;;;;;8.60;99.90;;;;;;6012268;23;20030;-80
2022/01/03 04:07:07;;;;;;;45.20;4.80;;;8.50;99.90;;;;;;6035294;23;19913;-82
2022/01/03 04:09:58;;;;;;;35.95;4.78;;;9.00;99.90;;;;;;6011774;23;20467;-81
2022/01/03 04:16:17;;;;;;;31.92;4.40;;;8.50;99.90;;;;;;6010501;23;20023;-81
2022/01/03 04:19:06;;;;;;;30.88;5.15;;;8.40;99.90;;;;;;6011875;23;20016;-83
2022/01/03 04:21:48;;;;;;;40.92;5.22;;;8.60;99.90;;;;;;6011509;23;20095;-81
2022/01/03 04:24:53;;;;;;;40.08;4.35;;;8.50;99.90;;;;;;6107717;23;20013;-82
2022/01/03 04:34:25;;;;;;;30.92;4.18;;;8.60;99.90;;;;;;5881990;24;20032;-83
2022/01/03 04:37:34;;;;;;;41.25;5.35;;;8.60;99.90;;;;;;5895835;24;20058;-81
2022/01/03 04:41:19;;;;;;;22.42;3.42;;;8.50;99.90;;;;;;5886657;24;20347;-80
2022/01/03 04:44:49;;;;;;;37.53;4.15;;;8.30;99.90;;;;;;5790661;24;20040;-83
2022/01/03 04:48:17;;;;;;;42.83;4.95;;;8.60;99.90;;;;;;5691456;25;20021;-83
2022/01/03 04:51:35;;;;;;;36.17;4.28;;;8.60;99.90;;;;;;5663863;25;20059;-82
2022/01/03 04:54:43;;;;;;;;;;;;;;;;;;;;;
2022/01/03 04:58:22;;;;;;;;;;;;;;;;;;;;;
2022/01/03 05:18:00;;;;;;;37.05;4.28;;;8.60;99.90;;;;;;6053216;22;4636621;-80
2022/01/03 05:23:47;;;;;;;36.20;5.00;;;8.50;99.90;;;;;;6126818;23;20022;-82
2022/01/03 05:26:26;;;;;;;34.05;4.85;;;8.70;99.90;;;;;;6103182;23;20537;-82
2022/01/03 05:29:09;;;;;;;40.22;5.63;;;8.20;99.90;;;;;;6103464;23;20101;-81
2022/01/03 05:31:43;;;;;;;39.85;4.95;;;8.60;99.90;;;;;;6103468;23;20351;-80
2022/01/03 05:34:40;;;;;;;43.53;5.38;;;8.80;99.90;;;;;;6105001;23;20022;-81
2022/01/03 05:37:58;;;;;;;;;;;;;;;;;;;;;
2022/01/03 05:40:31;;;;;;;39.92;5.95;;;8.50;99.90;;;;;;6105539;23;20018;-82
2022/01/03 05:43:53;;;;;;;;;;;;;;;;;;;;;
2022/01/03 05:47:12;;;;;;;44.70;4.90;;;8.50;99.90;;;;;;6102973;23;20014;-81
2022/01/03 05:50:00;;;;;;;35.67;4.32;;;8.60;99.90;;;;;;6082431;23;20021;-81
2022/01/03 05:53:00;;;;;;;34.70;4.65;;;8.50;99.90;;;;;;6157128;23;20012;-81
2022/01/03 05:59:30;;;;;;;38.85;5.63;;;8.60;99.90;;;;;;6216992;23;20441;-81
2022/01/03 06:02:16;;;;;;;46.15;5.45;;;8.60;99.90;;;;;;6166877;23;20012;-81
2022/01/03 06:08:55;;;;;;;40.33;5.25;;;8.60;99.90;;;;;;5977993;24;20472;-81
2022/01/03 06:11:33;;;;;;;45.47;6.07;;;8.60;99.90;;;;;;5960511;24;20020;-82
2022/01/03 06:14:26;;;;;;;39.65;5.22;;;8.70;99.90;;;;;;5964420;24;20027;-81
2022/01/03 06:16:55;;;;;;;43.25;5.28;;;8.50;99.90;;;;;;5932888;23;20098;-80
2022/01/03 06:19:24;;;;;;;37.22;5.10;;;9.30;99.90;;;;;;5933323;24;20059;-79
2022/01/03 06:21:50;;;;;;;43.78;5.55;;;8.50;99.90;;;;;;5932780;24;20067;-82
2022/01/03 06:24:18;;;;;;;43.20;5.80;;;9.20;99.90;;;;;;5933512;24;20095;-80
2022/01/03 06:26:45;;;;;;;35.30;4.82;;;9.20;99.90;;;;;;5933252;23;20087;-80
2022/01/03 06:29:13;;;;;;;42.95;6.05;;;9.40;99.90;;;;;;5933466;24;20023;-80
2022/01/03 06:31:42;;;;;;;43.22;5.10;;;9.30;99.90;;;;;;5932360;23;20044;-82
2022/01/03 06:34:08;;;;;;;41.35;5.18;;;8.90;99.90;;;;;;5956181;24;20024;-83
2022/01/03 06:36:45;;;;;;;34.97;5.15;;;8.50;99.90;;;;;;5934754;24;20035;-81
2022/01/03 06:39:12;;;;;;;35.80;4.38;;;8.50;99.90;;;;;;6008552;23;20023;-81
2022/01/03 06:41:41;;;;;;;35.88;4.47;;;9.60;99.90;;;;;;6035803;23;20098;-79
2022/01/03 06:44:07;;;;;;;46.78;5.95;;;8.60;99.90;;;;;;6098790;23;20044;-81
2022/01/03 06:46:34;;;;;;;51.08;6.38;;;8.60;99.90;;;;;;6133230;23;20021;-80
2022/01/03 06:49:00;;;;;;;41.35;6.00;;;8.50;99.90;;;;;;6133646;23;20016;-80
2022/01/03 06:51:31;;;;;;;40.22;5.80;;;8.60;99.90;;;;;;6183985;23;20090;-78
2022/01/03 06:54:17;;;;;;;39.38;5.97;;;8.50;99.90;;;;;;6134368;23;20056;-80
2022/01/03 06:56:49;;;;;;;42.47;5.75;;;8.40;99.90;;;;;;6133151;23;20020;-80
2022/01/03 07:00:25;;;;;;;49.15;5.50;;;8.00;99.90;;;;;;6131765;23;20147;-81
2022/01/03 07:02:51;;;;;;;41.08;5.40;;;7.80;99.90;;;;;;6062543;23;20086;-83
2022/01/03 07:05:23;;;;;;;47.15;5.75;;;8.30;99.90;;;;;;6015282;23;20054;-83
2022/01/03 07:07:49;;;;;;;40.97;5.57;;;8.40;99.90;;;;;;6014924;23;20019;-83
2022/01/03 07:10:21;;;;;;;43.08;5.05;;;8.30;99.90;;;;;;6015884;23;20068;-80
2022/01/03 07:13:01;;;;;;;48.28;5.18;;;7.80;99.90;;;;;;6017232;23;20054;-80
2022/01/03 07:21:16;;;;;;;40.08;4.40;;;8.70;99.90;;;;;;6060291;23;20019;-82
2022/01/03 07:23:45;;;;;;;46.63;5.35;;;8.50;99.90;;;;;;6016550;23;20022;-82
2022/01/03 07:27:10;;;;;;;40.30;5.90;;;8.70;99.90;;;;;;6040178;23;20074;-81
2022/01/03 07:29:50;;;;;;;48.53;5.43;;;8.90;99.90;;;;;;6015055;23;20019;-82
2022/01/03 07:39:36;;;;;;;57.17;6.40;;;8.90;99.90;;;;;;6090883;23;20020;-82
2022/01/03 07:42:44;;;;;;;41.80;5.15;;;8.50;99.90;;;;;;6066650;23;20018;-82
2022/01/03 07:45:15;;;;;;;40.17;5.68;;;8.60;99.90;;;;;;5924244;24;20029;-82
2022/01/03 07:47:41;;;;;;;44.05;5.95;;;9.30;99.90;;;;;;5926216;23;20140;-83
2022/01/03 07:50:12;;;;;;;47.13;6.78;;;8.70;99.90;;;;;;5927085;24;20085;-82
2022/01/03 07:53:00;;;;;;;;;;;;;;;;;;;;;
2022/01/03 07:55:31;;;;;;;39.53;5.43;;;8.60;99.90;;;;;;5927114;24;20445;-81
2022/01/03 07:58:11;;;;;;;39.88;5.05;;;8.50;99.90;;;;;;5928204;24;20637;-81
2022/01/03 08:05:31;;;;;;;41.25;6.00;;;8.60;99.90;;;;;;5927066;24;20025;-81
2022/01/03 08:19:18;;;;;;;41.15;5.32;;;8.40;99.90;;;;;;5948353;24;20028;-78
2022/01/03 08:21:51;;;;;;;42.83;5.60;;;9.10;99.90;;;;;;5927645;24;20033;-81
2022/01/03 08:24:23;;;;;;;46.78;6.60;;;9.10;99.90;;;;;;5927856;24;20021;-82
2022/01/03 08:26:52;;;;;;;40.35;4.63;;;9.10;99.90;;;;;;5926745;24;20021;-89
2022/01/03 08:29:18;;;;;;;47.20;5.93;;;9.00;99.90;;;;;;5924915;24;20069;-80
2022/01/03 08:32:10;;;;;;;42.00;6.30;;;9.00;99.90;;;;;;5906565;24;20020;-82
2022/01/03 08:34:36;;;;;;;38.85;5.20;;;9.70;99.90;;;;;;5928875;24;20076;-82
2022/01/03 08:37:20;;;;;;;44.80;5.07;;;9.00;99.90;;;;;;5932049;24;20068;-82
2022/01/03 08:39:45;;;;;;;51.28;5.75;;;9.00;99.90;;;;;;5933116;24;20039;-83
2022/01/03 08:42:11;;;;;;;42.17;5.82;;;9.00;99.90;;;;;;6003531;23;20019;-80
2022/01/03 08:44:37;;;;;;;43.13;5.57;;;9.10;99.90;;;;;;6032144;23;20009;-80
2022/01/03 08:47:05;;;;;;;41.65;5.15;;;9.10;99.90;;;;;;6132092;23;20012;-79
2022/01/03 08:49:32;;;;;;;41.78;5.57;;;9.10;99.90;;;;;;6132457;23;20005;-80
2022/01/03 08:51:58;;;;;;;49.83;5.53;;;9.10;99.90;;;;;;6156751;23;20013;-79
2022/01/03 08:54:23;;;;;;;44.38;5.18;;;9.10;99.90;;;;;;6156346;23;20017;-81
2022/01/03 08:56:49;;;;;;;38.45;4.80;;;9.10;99.90;;;;;;6131188;23;20013;-81
2022/01/03 08:59:15;;;;;;;41.00;6.05;;;9.20;99.90;;;;;;6131489;23;20155;-80
2022/01/03 09:01:40;;;;;;;41.92;5.47;;;9.20;99.90;;;;;;6155823;23;20024;-81
2022/01/03 09:04:06;;;;;;;40.47;4.95;;;9.20;99.90;;;;;;6131770;23;20091;-80
2022/01/03 09:06:33;;;;;;;42.30;5.72;;;9.20;99.90;;;;;;6155245;23;20033;-81
2022/01/03 09:09:06;;;;;;;48.70;5.95;;;9.20;99.90;;;;;;6154580;23;20035;-82
2022/01/03 09:11:32;;;;;;;42.00;5.47;;;9.20;99.90;;;;;;6131447;23;20017;-81
2022/01/03 09:14:19;;;;;;;44.88;5.30;;;9.30;99.90;;;;;;6129455;23;20060;-82
2022/01/03 09:17:35;;;;;;;31.85;5.20;;;10.20;99.90;;;;;;6030889;23;20099;-81
2022/01/03 09:20:34;;;;;;;34.83;5.60;;;9.20;99.90;;;;;;5943518;24;20021;-80
2022/01/03 09:30:46;;;;;;;39.85;5.68;;;9.20;99.90;;;;;;5871832;24;20033;-81
2022/01/03 09:33:54;;;;;;;41.35;5.70;;;9.50;99.90;;;;;;5772456;24;20023;-80
2022/01/03 09:37:17;;;;;;;46.55;5.63;;;8.70;99.90;;;;;;5716894;25;20027;-80
2022/01/03 09:40:20;;;;;;;34.38;5.45;;;9.40;99.90;;;;;;5709445;25;20108;-81
2022/01/03 09:43:18;;;;;;;45.35;4.97;;;9.30;99.90;;;;;;5733717;24;20055;-80
2022/01/03 09:46:07;;;;;;;46.45;5.18;;;9.40;99.90;;;;;;5709716;25;20019;-80
2022/01/03 09:48:59;;;;;;;34.28;5.35;;;10.20;99.90;;;;;;5614087;25;20113;-81
2022/01/03 09:54:26;;;;;;;41.42;5.95;;;9.80;99.90;;;;;;5680561;25;20027;-78
2022/01/03 09:56:52;;;;;;;37.35;5.40;;;9.40;99.90;;;;;;5697444;24;20017;-80
2022/01/03 09:59:18;;;;;;;45.42;6.15;;;9.40;99.90;;;;;;5816624;24;20057;-79
2022/01/03 10:01:45;;;;;;;33.50;4.60;;;9.40;99.90;;;;;;5836005;24;20091;-80
2022/01/03 10:04:15;;;;;;;38.08;5.00;;;9.40;99.90;;;;;;5839292;24;20067;-83
2022/01/03 10:06:42;;;;;;;33.92;5.13;;;9.50;99.90;;;;;;5810539;24;20030;-81
2022/01/03 10:09:07;;;;;;;38.00;5.30;;;9.50;99.90;;;;;;5792343;24;20023;-81
2022/01/03 10:11:36;;;;;;;42.97;5.53;;;9.50;99.90;;;;;;5814107;24;20026;-83
2022/01/03 10:14:02;;;;;;;30.05;4.70;;;9.50;99.90;;;;;;5915615;24;20027;-85
2022/01/03 10:16:34;;;;;;;26.10;4.32;;;9.60;99.90;;;;;;5922091;24;20025;-83
2022/01/03 10:19:42;;;;;;;;;;;;;;;;;;;;;
2022/01/03 11:18:46;;;;;;;35.42;4.72;;;10.10;99.90;;;;;;5399977;22;19499027;-81
2022/01/03 11:21:37;;;;;;;41.55;5.57;;;9.80;99.90;;;;;;6070321;23;20027;-81
2022/01/03 11:25:14;;;;;;;38.60;5.10;;;10.20;99.90;;;;;;5959500;24;20024;-80
2022/01/03 11:28:01;;;;;;;37.63;6.22;;;10.00;99.90;;;;;;5935171;24;20418;-82
2022/01/03 11:30:27;;;;;;;27.88;4.35;;;10.00;99.90;;;;;;5957180;24;20394;-80
2022/01/03 11:33:29;;;;;;;41.38;5.53;;;10.10;99.90;;;;;;5933383;24;20017;-80
2022/01/03 11:36:21;;;;;;;35.83;4.88;;;10.10;99.90;;;;;;5856711;24;20018;-81
2022/01/03 11:39:21;;;;;;;33.40;4.70;;;10.30;99.90;;;;;;5847800;24;20022;-79
2022/01/03 11:41:58;;;;;;;34.17;5.55;;;10.10;99.90;;;;;;5826235;24;20029;-79
2022/01/03 11:47:56;;;;;;;27.92;3.15;;;10.30;99.90;;;;;;5797764;24;20023;-79
2022/01/03 11:50:34;;;;;;;39.22;4.80;;;10.60;99.90;;;;;;5821573;24;20067;-79
2022/01/03 11:53:00;;;;;;;35.55;5.38;;;10.80;99.90;;;;;;5838660;24;20703;-79
2022/01/03 11:55:30;;;;;;;33.97;4.65;;;11.40;99.90;;;;;;5851628;24;20026;-81
2022/01/03 11:58:46;;;;;;;35.60;4.97;;;10.70;99.90;;;;;;5884801;24;20122;-84
2022/01/03 12:03:55;;;;;;;38.63;5.40;;;10.80;99.90;;;;;;5985053;23;20054;-80
2022/01/03 12:06:32;;;;;;;25.42;3.65;;;11.20;99.90;;;;;;5978570;23;20453;-81
2022/01/03 12:09:01;;;;;;;32.20;4.50;;;10.90;99.90;;;;;;5987846;23;20034;-77
2022/01/03 12:11:29;;;;;;;26.27;4.10;;;10.80;99.90;;;;;;5966875;23;20019;-79
2022/01/03 12:14:14;;;;;;;36.17;4.85;;;11.30;99.90;;;;;;6074444;23;20018;-78
2022/01/03 12:16:54;;;;;;;38.60;4.72;;;10.90;99.90;;;;;;6153207;23;20017;-82
2022/01/03 12:19:32;;;;;;;29.00;4.60;;;10.80;99.90;;;;;;6157894;23;20025;-81
2022/01/03 12:21:59;;;;;;;31.85;5.20;;;10.50;99.90;;;;;;6133006;23;20027;-80
2022/01/03 12:24:45;;;;;;;28.05;4.32;;;10.50;99.90;;;;;;6158352;23;20021;-80
2022/01/03 12:27:11;;;;;;;35.78;5.55;;;10.40;99.90;;;;;;6156991;23;20397;-79
2022/01/03 12:29:55;;;;;;;32.08;5.03;;;10.40;99.90;;;;;;6156641;23;20021;-80
2022/01/03 12:32:23;;;;;;;28.25;4.15;;;10.30;99.90;;;;;;6133417;23;20016;-78
2022/01/03 12:35:24;;;;;;;37.97;5.20;;;10.30;99.90;;;;;;6132514;23;20012;-81
2022/01/03 12:37:50;;;;;;;31.30;4.43;;;10.30;99.90;;;;;;6126295;23;20017;-79
2022/01/03 12:40:18;;;;;;;34.05;4.68;;;10.40;99.90;;;;;;6155957;23;20016;-79
2022/01/03 12:42:51;;;;;;;26.73;3.95;;;10.40;99.90;;;;;;6131423;23;20434;-79
2022/01/03 12:45:50;;;;;;;30.13;4.70;;;10.50;99.90;;;;;;6156821;23;20017;-81
2022/01/03 12:48:21;;;;;;;37.33;5.05;;;10.80;99.90;;;;;;6156781;23;20013;-82
2022/01/03 12:50:53;;;;;;;32.70;4.57;;;10.60;99.90;;;;;;6131019;23;20458;-81
2022/01/03 12:53:27;;;;;;;35.50;5.13;;;10.90;99.90;;;;;;6136855;23;20017;-80
2022/01/03 12:56:14;;;;;;;29.67;4.50;;;10.70;99.90;;;;;;6138931;23;20115;-81
2022/01/03 12:58:45;;;;;;;36.63;5.32;;;10.70;99.90;;;;;;6133648;23;20049;-82
2022/01/03 13:01:11;;;;;;;32.90;5.30;;;10.60;99.90;;;;;;6156512;23;20104;-85
2022/01/03 13:03:50;;;;;;;40.70;5.22;;;11.20;99.90;;;;;;6133081;23;20107;-81
2022/01/03 13:06:24;;;;;;;31.38;4.35;;;10.60;99.90;;;;;;6132814;23;20021;-81
2022/01/03 13:08:56;;;;;;;31.75;4.63;;;10.50;99.90;;;;;;6157648;23;20361;-82
2022/01/03 13:11:39;;;;;;;34.90;5.07;;;10.50;99.90;;;;;;6133009;23;20013;-80
2022/01/03 13:14:07;;;;;;;38.15;5.32;;;10.60;99.90;;;;;;6158074;23;20036;-82
2022/01/03 13:16:44;;;;;;;31.02;4.68;;;10.40;99.90;;;;;;6156414;23;20044;-80
2022/01/03 13:19:13;;;;;;;36.67;5.53;;;10.30;99.90;;;;;;6157106;23;20029;-81
2022/01/03 13:21:44;;;;;;;33.15;5.07;;;10.30;99.90;;;;;;6132981;23;20017;-82
2022/01/03 13:24:14;;;;;;;34.30;5.63;;;10.30;99.90;;;;;;6133099;23;20051;-83
2022/01/03 13:26:57;;;;;;;39.92;5.38;;;10.30;99.90;;;;;;6132915;23;20009;-83
2022/01/03 13:29:25;;;;;;;43.28;5.45;;;10.30;99.90;;;;;;6133355;23;20015;-79
2022/01/03 13:31:52;;;;;;;34.40;4.57;;;10.20;99.90;;;;;;6156267;23;20013;-82
2022/01/03 13:34:27;;;;;;;29.67;4.13;;;10.30;99.90;;;;;;6134866;23;20024;-82
2022/01/03 13:36:53;;;;;;;;;;;10.30;99.90;;;;;;6133605;23;20016;-83
2022/01/03 13:39:26;;;;;;;36.78;5.20;;;10.20;99.90;;;;;;6157728;23;20102;-83
2022/01/03 13:42:01;;;;;;;37.08;4.40;;;10.40;99.90;;;;;;6182683;23;20021;-80
2022/01/03 13:50:03;;;;;;;30.67;4.13;;;10.80;99.90;;;;;;6157505;23;20013;-83
2022/01/03 13:52:37;;;;;;;34.25;4.43;;;10.20;99.90;;;;;;6133106;23;20017;-81
2022/01/03 13:55:19;;;;;;;;;;;10.20;99.90;;;;;;6133137;23;20375;-82
2022/01/03 13:57:47;;;;;;;41.40;5.22;;;10.20;99.90;;;;;;6140501;23;19912;-85
2022/01/03 14:00:17;;;;;;;39.83;5.28;;;10.10;99.90;;;;;;6170793;23;20009;-82
2022/01/03 14:02:44;;;;;;;34.63;5.15;;;10.10;99.90;;;;;;6135562;23;20472;-81
2022/01/03 14:05:13;;;;;;;34.95;5.30;;;10.00;99.90;;;;;;6158615;23;20025;-81
2022/01/03 14:08:02;;;;;;;33.22;4.57;;;10.00;99.90;;;;;;6109593;23;20065;-80
2022/01/03 14:10:44;;;;;;;32.47;5.55;;;10.00;99.90;;;;;;6160431;23;20043;-78
2022/01/03 14:13:12;;;;;;;33.38;5.22;;;9.90;99.90;;;;;;6158746;23;20020;-81
2022/01/03 14:16:14;;;;;;;35.03;4.60;;;10.00;99.90;;;;;;6130217;23;20021;-78
2022/01/03 14:18:48;;;;;;;33.80;4.65;;;10.00;99.90;;;;;;6129054;23;20303;-78
2022/01/03 14:25:25;;;;;;;37.92;5.65;;;10.00;99.90;;;;;;6062788;23;20033;-82
2022/01/03 14:28:39;;;;;;;39.85;5.32;;;9.90;99.90;;;;;;6013848;23;20022;-81
2022/01/03 14:31:41;;;;;;;35.67;5.40;;;9.90;99.90;;;;;;6046068;23;20022;-81
2022/01/03 14:35:21;;;;;;;37.15;5.55;;;9.90;99.90;;;;;;6029211;23;20114;-81
2022/01/03 14:38:28;;;;;;;38.55;6.07;;;9.60;99.90;;;;;;5977541;23;20100;-81
2022/01/03 14:48:36;;;;;;;43.40;5.63;;;9.80;99.90;;;;;;5866255;24;20064;-80
2022/01/03 14:52:05;;;;;;;47.72;5.85;;;9.30;99.90;;;;;;5843813;24;20057;-83
2022/01/03 14:54:54;;;;;;;30.48;5.07;;;9.00;99.90;;;;;;5822492;24;20022;-80
2022/01/03 14:57:31;;;;;;;37.55;4.97;;;10.20;99.90;;;;;;5817722;24;20131;-80
2022/01/03 15:00:10;;;;;;;35.30;5.45;;;9.60;99.90;;;;;;5819299;24;20471;-81
2022/01/03 15:02:42;;;;;;;31.77;4.90;;;9.60;99.90;;;;;;5821810;24;20064;-80
2022/01/03 15:05:09;;;;;;;33.38;4.57;;;9.60;99.90;;;;;;5843560;24;20014;-80
2022/01/03 15:07:36;;;;;;;44.58;5.28;;;10.10;99.90;;;;;;5843519;24;20018;-79
2022/01/03 15:10:08;;;;;;;45.85;6.35;;;9.90;99.90;;;;;;5843124;24;20052;-80
2022/01/03 15:12:34;;;;;;;46.20;5.78;;;9.50;99.90;;;;;;5882119;23;20048;-79
2022/01/03 15:15:01;;;;;;;44.08;5.25;;;9.30;99.90;;;;;;6008689;23;20444;-79
2022/01/03 15:17:27;;;;;;;37.90;5.38;;;9.60;99.90;;;;;;6007260;23;20058;-80
2022/01/03 15:19:52;;;;;;;50.38;6.30;;;9.80;99.90;;;;;;5985151;23;20099;-80
2022/01/03 15:22:18;;;;;;;37.55;5.65;;;9.50;99.90;;;;;;5985561;23;20051;-80
2022/01/03 15:24:48;;;;;;;41.40;5.93;;;9.50;99.90;;;;;;6007862;23;20070;-80
2022/01/03 15:27:15;;;;;;;46.53;6.43;;;9.60;99.90;;;;;;5986168;23;20392;-80
2022/01/03 15:29:46;;;;;;;43.22;5.93;;;9.40;99.90;;;;;;6058744;23;20031;-80
2022/01/03 15:32:13;;;;;;;44.53;6.40;;;9.30;99.90;;;;;;6149764;23;20020;-80
2022/01/03 15:39:04;;;;;;;54.47;6.90;;;9.30;99.90;;;;;;5949221;24;20100;-78
2022/01/03 15:41:29;;;;;;;47.85;6.85;;;9.20;99.90;;;;;;5947864;24;20048;-79
2022/01/03 15:43:55;;;;;;;40.35;5.38;;;9.20;99.90;;;;;;5972438;24;20017;-80
2022/01/03 15:46:22;;;;;;;58.42;6.45;;;9.20;99.90;;;;;;5970728;24;20396;-79
2022/01/03 15:48:48;;;;;;;47.58;6.28;;;9.20;99.90;;;;;;5973256;23;20100;-80
2022/01/03 15:51:14;;;;;;;45.85;5.95;;;9.20;99.90;;;;;;5974862;23;20505;-80
2022/01/03 15:53:40;;;;;;;41.33;5.85;;;9.20;99.90;;;;;;5974328;24;20099;-80
2022/01/03 15:56:16;;;;;;;34.95;4.85;;;9.40;99.90;;;;;;5974124;24;20031;-80
2022/01/03 15:59:04;;;;;;;56.17;6.55;;;9.70;99.90;;;;;;5974655;24;20413;-79
2022/01/03 16:01:48;;;;;;;34.33;4.90;;;9.10;99.90;;;;;;5944542;24;20024;-80
2022/01/03 16:04:15;;;;;;;32.60;4.85;;;9.00;99.90;;;;;;5973439;23;20016;-81
2022/01/03 16:06:43;;;;;;;43.53;5.40;;;9.10;99.90;;;;;;5973172;24;20012;-79
2022/01/03 16:17:22;;;;;;;36.10;5.07;;;9.30;99.90;;;;;;5977033;24;20024;-82
2022/01/03 16:20:28;;;;;;;39.45;4.90;;;9.10;99.90;;;;;;5878267;24;20025;-81
2022/01/03 16:22:54;;;;;;;31.08;4.20;;;9.80;99.90;;;;;;5870957;24;20021;-80
2022/01/03 16:25:20;;;;;;;40.88;5.00;;;9.70;99.90;;;;;;5850365;24;20036;-82
2022/01/03 16:27:52;;;;;;;36.28;4.78;;;9.70;99.90;;;;;;5872730;24;20023;-81
2022/01/03 16:30:19;;;;;;;38.45;4.75;;;8.90;99.90;;;;;;5872574;24;20021;-81
2022/01/03 16:32:45;;;;;;;33.03;5.15;;;8.90;99.90;;;;;;5895092;24;20477;-81
2022/01/03 16:35:12;;;;;;;32.90;5.05;;;8.90;99.90;;;;;;5873362;24;20089;-84
2022/01/03 16:37:43;;;;;;;36.03;4.43;;;8.80;99.90;;;;;;5871905;24;20467;-80
2022/01/03 16:40:11;;;;;;;22.90;3.78;;;8.80;99.90;;;;;;5872555;24;20025;-82
2022/01/03 16:42:40;;;;;;;36.08;4.95;;;8.80;99.90;;;;;;5872183;24;20733;-82
2022/01/03 16:45:06;;;;;;;38.83;4.60;;;8.70;99.90;;;;;;5871631;24;20049;-82
2022/01/03 16:47:36;;;;;;;42.00;5.07;;;8.60;99.90;;;;;;5894430;24;20062;-85
2022/01/03 16:50:04;;;;;;;30.38;3.95;;;8.60;99.90;;;;;;5895529;24;20060;-85
2022/01/03 16:52:30;;;;;;;30.52;4.13;;;8.50;99.90;;;;;;5872199;24;20453;-80
2022/01/03 16:54:56;;;;;;;31.83;3.60;;;8.80;99.90;;;;;;5974637;23;20046;-80
2022/01/03 16:57:24;;;;;;;30.02;3.72;;;8.50;99.90;;;;;;6082726;23;20017;-80
2022/01/03 16:59:50;;;;;;;28.30;3.92;;;8.50;99.90;;;;;;6103694;23;20020;-81
2022/01/03 17:02:15;;;;;;;29.17;3.67;;;8.40;99.90;;;;;;6126685;23;20048;-82
2022/01/03 17:04:41;;;;;;;32.55;4.72;;;8.40;99.90;;;;;;6127562;23;20021;-79
2022/01/03 17:07:06;;;;;;;39.17;4.60;;;8.40;99.90;;;;;;6102839;23;20016;-80
2022/01/03 17:09:33;;;;;;;27.52;4.15;;;8.40;99.90;;;;;;6128298;23;20088;-80
2022/01/03 17:11:58;;;;;;;30.50;4.03;;;8.40;99.90;;;;;;6128409;23;20017;-81
2022/01/03 17:14:24;;;;;;;27.60;3.85;;;8.30;99.90;;;;;;6104763;23;20021;-79
2022/01/03 17:16:52;;;;;;;24.20;2.88;;;8.40;99.90;;;;;;6126880;23;20410;-80
2022/01/03 17:19:18;;;;;;;35.75;4.13;;;8.40;99.90;;;;;;6126498;23;20101;-81
2022/01/03 17:21:44;;;;;;;32.17;3.80;;;8.30;99.90;;;;;;6132858;23;20127;-82
2022/01/03 17:24:09;;;;;;;30.92;3.58;;;8.30;99.90;;;;;;6157171;23;20039;-80
2022/01/03 17:26:57;;;;;;;30.98;4.22;;;8.30;99.90;;;;;;6156719;23;20432;-82
2022/01/03 17:29:26;;;;;;;37.58;3.97;;;8.20;99.90;;;;;;6132535;23;20092;-79
2022/01/03 17:31:52;;;;;;;30.38;3.42;;;8.20;99.90;;;;;;6156210;23;20398;-81
2022/01/03 17:34:18;;;;;;;33.38;3.38;;;8.70;99.90;;;;;;6157541;23;20096;-79
2022/01/03 17:36:44;;;;;;;32.13;5.57;;;8.60;99.90;;;;;;6157248;23;20093;-79
2022/01/03 17:39:09;;;;;;;23.75;3.15;;;7.90;99.90;;;;;;6132561;23;20522;-79
2022/01/03 17:41:35;;;;;;;35.78;3.88;;;8.00;99.90;;;;;;6158344;23;20078;-78
2022/01/03 17:44:02;;;;;;;23.15;2.72;;;8.50;99.90;;;;;;6154581;23;20046;-80
2022/01/03 17:46:28;;;;;;;42.13;4.50;;;7.90;99.90;;;;;;6182036;23;20307;-80
2022/01/03 17:48:53;;;;;;;27.38;3.50;;;8.00;99.90;;;;;;6156176;23;20110;-78
2022/01/03 17:51:19;;;;;;;37.05;4.80;;;7.90;99.90;;;;;;6156332;23;20341;-79
2022/01/03 17:53:46;;;;;;;36.33;3.88;;;7.90;99.90;;;;;;6155869;23;20124;-77
2022/01/03 17:56:12;;;;;;;32.53;3.97;;;7.80;99.90;;;;;;6155639;23;20017;-80
2022/01/03 17:58:40;;;;;;;28.83;3.35;;;7.80;99.90;;;;;;6156502;23;20106;-79
2022/01/03 18:01:07;;;;;;;32.85;3.72;;;8.00;99.90;;;;;;6153781;23;20338;-79
2022/01/03 18:03:33;;;;;;;24.80;3.65;;;7.80;99.90;;;;;;6130772;23;20135;-79
2022/01/03 18:05:59;;;;;;;29.35;3.78;;;7.70;99.90;;;;;;6130744;23;20009;-79
2022/01/03 18:08:26;;;;;;;22.65;3.58;;;7.70;99.90;;;;;;6155711;23;20013;-81
2022/01/03 18:10:52;;;;;;;25.38;3.33;;;7.70;99.90;;;;;;6130322;23;20039;-81
2022/01/03 18:13:19;;;;;;;25.77;3.22;;;7.70;99.90;;;;;;6154741;23;20146;-80
2022/01/03 18:15:45;;;;;;;32.45;3.40;;;7.70;99.90;;;;;;6129477;23;20013;-80
2022/01/03 18:18:12;;;;;;;30.38;3.53;;;7.60;99.90;;;;;;6130250;23;20295;-83
2022/01/03 18:20:37;;;;;;;34.08;3.95;;;7.60;99.90;;;;;;6129988;23;20052;-82
2022/01/03 18:23:04;;;;;;;25.33;3.25;;;7.60;99.90;;;;;;6155797;23;20020;-85
2022/01/03 18:25:31;;;;;;;29.80;3.83;;;7.60;99.90;;;;;;6154388;23;20505;-81
2022/01/03 18:27:57;;;;;;;32.97;3.78;;;7.60;99.90;;;;;;6130979;23;20017;-82
2022/01/03 18:30:29;;;;;;;27.50;4.10;;;7.60;99.90;;;;;;6155758;23;20035;-82
2022/01/03 18:33:19;;;;;;;30.60;4.50;;;7.70;99.90;;;;;;6153867;23;20017;-82
2022/01/03 18:35:48;;;;;;;32.28;3.80;;;7.50;99.90;;;;;;6130799;23;20012;-81
2022/01/03 18:38:14;;;;;;;26.70;3.65;;;7.80;99.90;;;;;;6180439;23;20167;-83
2022/01/03 18:40:40;;;;;;;30.50;3.80;;;8.30;99.90;;;;;;6130391;23;20013;-81
2022/01/03 18:43:09;;;;;;;22.70;3.35;;;7.50;99.90;;;;;;6132080;23;20101;-82
2022/01/03 18:45:37;;;;;;;31.55;3.80;;;7.50;99.90;;;;;;6130726;23;20158;-82
2022/01/03 18:48:05;;;;;;;45.92;4.63;;;7.40;99.90;;;;;;6154947;23;20436;-81
2022/01/03 18:50:31;;;;;;;33.22;4.30;;;7.40;99.90;;;;;;6130424;23;20095;-82
2022/01/03 18:52:57;;;;;;;31.77;4.10;;;7.40;99.90;;;;;;6155698;23;20052;-81
2022/01/03 18:55:41;;;;;;;25.55;3.65;;;7.40;99.90;;;;;;6156354;23;20013;-85
2022/01/03 18:58:07;;;;;;;44.65;4.25;;;7.40;99.90;;;;;;6157857;23;20434;-86
2022/01/03 19:00:32;;;;;;;32.33;3.60;;;7.40;99.90;;;;;;6181132;23;20048;-84
2022/01/03 19:02:58;;;;;;;22.92;3.58;;;7.50;99.90;;;;;;6131136;23;20164;-83
2022/01/03 19:05:25;;;;;;;29.38;3.53;;;7.70;99.90;;;;;;6130724;23;20024;-80
2022/01/03 19:07:50;;;;;;;30.05;3.75;;;7.30;99.90;;;;;;6154771;23;20013;-81
2022/01/03 19:10:17;;;;;;;41.47;4.55;;;7.70;99.90;;;;;;6154798;23;20047;-83
2022/01/03 19:12:44;;;;;;;29.63;3.38;;;7.30;99.90;;;;;;6130244;23;20017;-82
2022/01/03 19:15:11;;;;;;;29.35;4.35;;;7.30;99.90;;;;;;6130172;23;20017;-82